N38C KCOF-KISM
Flight info
| Callsign | N38C |
|---|---|
| Flight time | 0h 34m |
| Altitude | 3000 |
| Route | DIRECT |
| Aircraft | P28/L-VGDW/C |
Departure
| Time | 2026-04-27 18:18 |
|---|---|
| Airport | Patrick Space Force Base (KCOF) |
Arrival
| Time | 2026-04-27 18:52 |
|---|---|
| Airport | Kissimmee Gateway Airport (KISM) |
| Time | Latitude | Longitude | Altitude | Speed | Heading |
|---|---|---|---|---|---|
| 2026-04-27 18:03 | 28.23575 | -80.60528 | 9 ft | 0 kts | 304° |
| 2026-04-27 18:09 | 28.23577 | -80.60531 | 9 ft | 1 kts | 302° |
| 2026-04-27 18:10 | 28.23567 | -80.60544 | 9 ft | 4 kts | 162° |
| 2026-04-27 18:10 | 28.23552 | -80.60546 | 9 ft | 7 kts | 202° |
| 2026-04-27 18:10 | 28.23532 | -80.60589 | 8 ft | 8 kts | 288° |
| 2026-04-27 18:10 | 28.23538 | -80.60620 | 7 ft | 0 kts | 296° |
| 2026-04-27 18:11 | 28.23541 | -80.60627 | 7 ft | 6 kts | 295° |
| 2026-04-27 18:11 | 28.23503 | -80.60676 | 6 ft | 12 kts | 200° |
| 2026-04-27 18:11 | 28.23407 | -80.60714 | 5 ft | 17 kts | 200° |
| 2026-04-27 18:11 | 28.23291 | -80.60762 | 7 ft | 19 kts | 200° |
| 2026-04-27 18:12 | 28.23161 | -80.60814 | 7 ft | 20 kts | 199° |
| 2026-04-27 18:12 | 28.23033 | -80.60866 | 9 ft | 19 kts | 200° |
| 2026-04-27 18:12 | 28.22911 | -80.60917 | 10 ft | 18 kts | 200° |
| 2026-04-27 18:12 | 28.22857 | -80.60939 | 9 ft | 4 kts | 199° |
| 2026-04-27 18:13 | 28.22802 | -80.60961 | 9 ft | 13 kts | 199° |
| 2026-04-27 18:13 | 28.22687 | -80.61009 | 11 ft | 21 kts | 200° |
| 2026-04-27 18:13 | 28.22528 | -80.61074 | 10 ft | 28 kts | 200° |
| 2026-04-27 18:13 | 28.22344 | -80.61150 | 10 ft | 26 kts | 200° |
| 2026-04-27 18:14 | 28.22210 | -80.61195 | 9 ft | 15 kts | 185° |
| 2026-04-27 18:14 | 28.22126 | -80.61219 | 9 ft | 9 kts | 200° |
| 2026-04-27 18:14 | 28.22078 | -80.61256 | 10 ft | 11 kts | 230° |
| 2026-04-27 18:14 | 28.22056 | -80.61307 | 11 ft | 0 kts | 251° |
| 2026-04-27 18:15 | 28.22074 | -80.61358 | 11 ft | 13 kts | 304° |
| 2026-04-27 18:15 | 28.22091 | -80.61402 | 12 ft | 0 kts | 291° |
| 2026-04-27 18:16 | 28.22091 | -80.61403 | 12 ft | 1 kts | 291° |
| 2026-04-27 18:16 | 28.22126 | -80.61469 | 12 ft | 13 kts | 333° |
| 2026-04-27 18:17 | 28.22222 | -80.61457 | 9 ft | 23 kts | 18° |
| 2026-04-27 18:17 | 28.22563 | -80.61330 | 26 ft | 73 kts | 17° |
| 2026-04-27 18:17 | 28.23037 | -80.61113 | 288 ft | 69 kts | 19° |
| 2026-04-27 18:17 | 28.23502 | -80.60950 | 492 ft | 76 kts | 12° |
| 2026-04-27 18:18 | 28.24017 | -80.61019 | 743 ft | 73 kts | 316° |
| 2026-04-27 18:18 | 28.24165 | -80.61566 | 996 ft | 75 kts | 260° |
| 2026-04-27 18:18 | 28.23950 | -80.62118 | 1201 ft | 79 kts | 250° |
| 2026-04-27 18:18 | 28.23914 | -80.62727 | 1438 ft | 78 kts | 281° |
| 2026-04-27 18:19 | 28.24183 | -80.63259 | 1664 ft | 80 kts | 317° |
| 2026-04-27 18:19 | 28.24649 | -80.63586 | 1893 ft | 78 kts | 329° |
| 2026-04-27 18:19 | 28.25100 | -80.63945 | 2084 ft | 82 kts | 305° |
| 2026-04-27 18:19 | 28.25366 | -80.64498 | 2309 ft | 80 kts | 295° |
| 2026-04-27 18:20 | 28.25640 | -80.65020 | 2525 ft | 79 kts | 307° |
| 2026-04-27 18:20 | 28.26014 | -80.65535 | 2649 ft | 90 kts | 307° |
| 2026-04-27 18:20 | 28.26400 | -80.66121 | 2772 ft | 98 kts | 307° |
| 2026-04-27 18:20 | 28.26841 | -80.66724 | 2986 ft | 99 kts | 310° |
| 2026-04-27 18:21 | 28.27280 | -80.67323 | 3148 ft | 100 kts | 310° |
| 2026-04-27 18:21 | 28.27734 | -80.67934 | 3278 ft | 102 kts | 312° |
| 2026-04-27 18:21 | 28.28219 | -80.68523 | 3417 ft | 102 kts | 311° |
| 2026-04-27 18:21 | 28.28700 | -80.69119 | 3554 ft | 102 kts | 312° |
| 2026-04-27 18:22 | 28.29176 | -80.69708 | 3695 ft | 103 kts | 312° |
| 2026-04-27 18:22 | 28.29656 | -80.70307 | 3885 ft | 102 kts | 311° |
| 2026-04-27 18:22 | 28.30136 | -80.70903 | 4066 ft | 102 kts | 311° |
| 2026-04-27 18:22 | 28.30616 | -80.71499 | 4236 ft | 102 kts | 313° |
| 2026-04-27 18:23 | 28.30974 | -80.72178 | 4326 ft | 104 kts | 275° |
| 2026-04-27 18:23 | 28.30678 | -80.72901 | 4442 ft | 105 kts | 221° |
| 2026-04-27 18:23 | 28.30133 | -80.73439 | 4591 ft | 103 kts | 226° |
| 2026-04-27 18:23 | 28.29615 | -80.73996 | 4745 ft | 102 kts | 224° |
| 2026-04-27 18:24 | 28.29103 | -80.74552 | 4876 ft | 102 kts | 231° |
| 2026-04-27 18:24 | 28.28871 | -80.75307 | 4990 ft | 102 kts | 257° |
| 2026-04-27 18:24 | 28.28632 | -80.76084 | 5013 ft | 104 kts | 247° |
| 2026-04-27 18:24 | 28.28323 | -80.76813 | 5057 ft | 104 kts | 244° |
| 2026-04-27 18:25 | 28.27930 | -80.77504 | 5091 ft | 105 kts | 231° |
| 2026-04-27 18:25 | 28.27411 | -80.78086 | 5120 ft | 105 kts | 225° |
| 2026-04-27 18:25 | 28.26843 | -80.78601 | 5159 ft | 105 kts | 214° |
| 2026-04-27 18:25 | 28.26310 | -80.79165 | 5134 ft | 109 kts | 239° |
| 2026-04-27 18:26 | 28.26080 | -80.79950 | 5209 ft | 103 kts | 264° |
| 2026-04-27 18:26 | 28.26090 | -80.80778 | 5233 ft | 104 kts | 272° |
| 2026-04-27 18:26 | 28.26126 | -80.81590 | 5296 ft | 102 kts | 272° |
| 2026-04-27 18:26 | 28.26129 | -80.82395 | 5360 ft | 102 kts | 271° |
| 2026-04-27 18:27 | 28.26141 | -80.83196 | 5395 ft | 101 kts | 270° |
| 2026-04-27 18:27 | 28.26150 | -80.83985 | 5425 ft | 101 kts | 271° |
| 2026-04-27 18:27 | 28.26154 | -80.84782 | 5455 ft | 101 kts | 271° |
| 2026-04-27 18:27 | 28.26164 | -80.85579 | 5485 ft | 101 kts | 271° |
| 2026-04-27 18:28 | 28.26174 | -80.86375 | 5510 ft | 101 kts | 271° |
| 2026-04-27 18:28 | 28.26177 | -80.87238 | 5319 ft | 116 kts | 270° |
| 2026-04-27 18:28 | 28.26159 | -80.88159 | 5127 ft | 118 kts | 268° |
| 2026-04-27 18:28 | 28.26117 | -80.89102 | 4880 ft | 120 kts | 267° |
| 2026-04-27 18:29 | 28.26057 | -80.90036 | 4651 ft | 120 kts | 266° |
| 2026-04-27 18:29 | 28.25999 | -80.91003 | 4334 ft | 120 kts | 267° |
| 2026-04-27 18:29 | 28.25961 | -80.91927 | 3980 ft | 120 kts | 267° |
| 2026-04-27 18:29 | 28.25904 | -80.92879 | 3616 ft | 119 kts | 266° |
| 2026-04-27 18:30 | 28.25837 | -80.93814 | 3258 ft | 119 kts | 265° |
| 2026-04-27 18:30 | 28.25743 | -80.94745 | 2911 ft | 118 kts | 262° |
| 2026-04-27 18:30 | 28.25590 | -80.95650 | 2665 ft | 115 kts | 258° |
| 2026-04-27 18:30 | 28.25407 | -80.96525 | 2497 ft | 113 kts | 256° |
| 2026-04-27 18:31 | 28.25221 | -80.97370 | 2382 ft | 111 kts | 256° |
| 2026-04-27 18:31 | 28.25012 | -80.98207 | 2292 ft | 109 kts | 255° |
| 2026-04-27 18:31 | 28.24834 | -80.99068 | 2213 ft | 112 kts | 258° |
| 2026-04-27 18:31 | 28.24646 | -80.99923 | 2144 ft | 113 kts | 256° |
| 2026-04-27 18:32 | 28.24442 | -81.00776 | 2128 ft | 108 kts | 255° |
| 2026-04-27 18:32 | 28.24236 | -81.01603 | 1995 ft | 110 kts | 253° |
| 2026-04-27 18:32 | 28.23997 | -81.02415 | 1974 ft | 108 kts | 250° |
| 2026-04-27 18:32 | 28.23753 | -81.03204 | 1989 ft | 104 kts | 253° |
| 2026-04-27 18:33 | 28.23525 | -81.03984 | 1952 ft | 103 kts | 251° |
| 2026-04-27 18:33 | 28.23269 | -81.04729 | 1954 ft | 101 kts | 249° |
| 2026-04-27 18:33 | 28.23003 | -81.05427 | 1982 ft | 99 kts | 246° |
| 2026-04-27 18:33 | 28.22751 | -81.06019 | 1963 ft | 103 kts | 247° |
| 2026-04-27 18:34 | 28.22559 | -81.06618 | 2009 ft | 99 kts | 252° |
| 2026-04-27 18:34 | 28.22395 | -81.07385 | 1976 ft | 103 kts | 259° |
| 2026-04-27 18:34 | 28.22270 | -81.08168 | 2008 ft | 98 kts | 259° |
| 2026-04-27 18:35 | 28.22091 | -81.08897 | 2069 ft | 91 kts | 252° |
| 2026-04-27 18:35 | 28.21893 | -81.09595 | 2065 ft | 94 kts | 253° |
| 2026-04-27 18:35 | 28.21659 | -81.10297 | 2207 ft | 96 kts | 247° |
| 2026-04-27 18:35 | 28.21368 | -81.11004 | 2296 ft | 104 kts | 244° |
| 2026-04-27 18:36 | 28.21048 | -81.11741 | 2424 ft | 105 kts | 243° |
| 2026-04-27 18:36 | 28.20671 | -81.12490 | 2504 ft | 113 kts | 240° |
| 2026-04-27 18:36 | 28.20265 | -81.13268 | 2584 ft | 115 kts | 240° |
| 2026-04-27 18:36 | 28.19883 | -81.14066 | 2765 ft | 114 kts | 246° |
| 2026-04-27 18:37 | 28.19578 | -81.14873 | 2873 ft | 114 kts | 244° |
| 2026-04-27 18:37 | 28.19198 | -81.15640 | 3047 ft | 109 kts | 239° |
| 2026-04-27 18:37 | 28.18917 | -81.16463 | 3118 ft | 114 kts | 255° |
| 2026-04-27 18:37 | 28.18725 | -81.17332 | 3158 ft | 114 kts | 256° |
| 2026-04-27 18:38 | 28.18555 | -81.18193 | 3178 ft | 112 kts | 262° |
| 2026-04-27 18:38 | 28.18443 | -81.19059 | 3055 ft | 109 kts | 262° |
| 2026-04-27 18:38 | 28.18322 | -81.19888 | 2781 ft | 106 kts | 260° |
| 2026-04-27 18:38 | 28.18150 | -81.20692 | 2506 ft | 104 kts | 253° |
| 2026-04-27 18:39 | 28.17903 | -81.21453 | 2245 ft | 102 kts | 248° |
| 2026-04-27 18:39 | 28.17669 | -81.22177 | 1968 ft | 94 kts | 250° |
| 2026-04-27 18:39 | 28.17400 | -81.22849 | 1713 ft | 92 kts | 245° |
| 2026-04-27 18:39 | 28.17102 | -81.23489 | 1454 ft | 92 kts | 241° |
| 2026-04-27 18:40 | 28.16794 | -81.24035 | 1304 ft | 79 kts | 237° |
| 2026-04-27 18:40 | 28.16491 | -81.24532 | 1198 ft | 77 kts | 236° |
| 2026-04-27 18:40 | 28.16184 | -81.25010 | 1117 ft | 73 kts | 236° |
| 2026-04-27 18:40 | 28.15897 | -81.25473 | 1070 ft | 70 kts | 235° |
| 2026-04-27 18:41 | 28.15616 | -81.25936 | 1009 ft | 70 kts | 239° |
| 2026-04-27 18:41 | 28.15377 | -81.26418 | 964 ft | 68 kts | 243° |
| 2026-04-27 18:41 | 28.15161 | -81.26903 | 949 ft | 67 kts | 244° |
| 2026-04-27 18:41 | 28.15006 | -81.27411 | 910 ft | 69 kts | 256° |
| 2026-04-27 18:42 | 28.14856 | -81.27945 | 936 ft | 72 kts | 248° |
| 2026-04-27 18:42 | 28.14800 | -81.28125 | 963 ft | 72 kts | 252° |
| 2026-04-27 18:42 | 28.14704 | -81.29069 | 1093 ft | 73 kts | 263° |
| 2026-04-27 18:42 | 28.14623 | -81.29632 | 1147 ft | 74 kts | 261° |
| 2026-04-27 18:43 | 28.14657 | -81.30212 | 1190 ft | 74 kts | 276° |
| 2026-04-27 18:43 | 28.14659 | -81.30597 | 1229 ft | 73 kts | 264° |
| 2026-04-27 18:43 | 28.14476 | -81.31142 | 1269 ft | 74 kts | 239° |
| 2026-04-27 18:43 | 28.14296 | -81.31679 | 1300 ft | 74 kts | 269° |
| 2026-04-27 18:44 | 28.14578 | -81.32363 | 1352 ft | 75 kts | 314° |
| 2026-04-27 18:44 | 28.14853 | -81.32606 | 1391 ft | 74 kts | 321° |
| 2026-04-27 18:44 | 28.15257 | -81.32961 | 1456 ft | 75 kts | 320° |
| 2026-04-27 18:44 | 28.15648 | -81.33353 | 1557 ft | 76 kts | 315° |
| 2026-04-27 18:45 | 28.16016 | -81.33797 | 1593 ft | 76 kts | 310° |
| 2026-04-27 18:45 | 28.16341 | -81.34274 | 1623 ft | 77 kts | 304° |
| 2026-04-27 18:45 | 28.16674 | -81.34749 | 1653 ft | 77 kts | 310° |
| 2026-04-27 18:45 | 28.17045 | -81.35187 | 1690 ft | 77 kts | 314° |
| 2026-04-27 18:46 | 28.17416 | -81.35628 | 1725 ft | 78 kts | 309° |
| 2026-04-27 18:46 | 28.17751 | -81.36090 | 1730 ft | 74 kts | 309° |
| 2026-04-27 18:46 | 28.18103 | -81.36516 | 1713 ft | 74 kts | 315° |
| 2026-04-27 18:46 | 28.18517 | -81.36867 | 1697 ft | 74 kts | 322° |
| 2026-04-27 18:47 | 28.18910 | -81.37237 | 1682 ft | 74 kts | 317° |
| 2026-04-27 18:47 | 28.19299 | -81.37617 | 1671 ft | 73 kts | 315° |
| 2026-04-27 18:47 | 28.19663 | -81.38025 | 1643 ft | 74 kts | 313° |
| 2026-04-27 18:47 | 28.20011 | -81.38448 | 1578 ft | 74 kts | 310° |
| 2026-04-27 18:48 | 28.20377 | -81.38844 | 1489 ft | 73 kts | 320° |
| 2026-04-27 18:48 | 28.20803 | -81.39170 | 1392 ft | 73 kts | 328° |
| 2026-04-27 18:48 | 28.21266 | -81.39423 | 1290 ft | 74 kts | 332° |
| 2026-04-27 18:48 | 28.21733 | -81.39651 | 1212 ft | 72 kts | 335° |
| 2026-04-27 18:49 | 28.22184 | -81.39900 | 1142 ft | 73 kts | 331° |
| 2026-04-27 18:49 | 28.22644 | -81.40159 | 1081 ft | 73 kts | 333° |
| 2026-04-27 18:49 | 28.23115 | -81.40385 | 1021 ft | 73 kts | 334° |
| 2026-04-27 18:49 | 28.23576 | -81.40634 | 962 ft | 74 kts | 334° |
| 2026-04-27 18:50 | 28.24054 | -81.40841 | 911 ft | 74 kts | 339° |
| 2026-04-27 18:50 | 28.24539 | -81.41015 | 850 ft | 74 kts | 341° |
| 2026-04-27 18:50 | 28.25029 | -81.41188 | 802 ft | 74 kts | 340° |
| 2026-04-27 18:50 | 28.25514 | -81.41377 | 766 ft | 73 kts | 338° |
| 2026-04-27 18:51 | 28.25984 | -81.41610 | 712 ft | 74 kts | 332° |
| 2026-04-27 18:51 | 28.26425 | -81.41918 | 653 ft | 75 kts | 325° |
| 2026-04-27 18:51 | 28.26868 | -81.42245 | 578 ft | 76 kts | 326° |
| 2026-04-27 18:51 | 28.27314 | -81.42554 | 469 ft | 76 kts | 327° |
| 2026-04-27 18:52 | 28.27764 | -81.42856 | 321 ft | 71 kts | 326° |
| 2026-04-27 18:52 | 28.28169 | -81.43151 | 146 ft | 69 kts | 327° |
| 2026-04-27 18:52 | 28.28540 | -81.43409 | 84 ft | 46 kts | 327° |
| 2026-04-27 18:53 | 28.28862 | -81.43548 | 87 ft | 10 kts | 63° |
| 2026-04-27 18:53 | 28.28905 | -81.43539 | 85 ft | 15 kts | 331° |
| 2026-04-27 18:53 | 28.29028 | -81.43622 | 85 ft | 20 kts | 327° |
| 2026-04-27 18:53 | 28.29123 | -81.43690 | 86 ft | 22 kts | 332° |
| 2026-04-27 18:54 | 28.29219 | -81.43671 | 87 ft | 17 kts | 58° |
| 2026-04-27 18:54 | 28.29307 | -81.43606 | 86 ft | 12 kts | 92° |
| 2026-04-27 18:54 | 28.29295 | -81.43584 | 85 ft | 0 kts | 159° |